Time;durP1;ratioP1;P1;durP2;ratioP2;P2;SDS_P1;SDS_P2;PMS_P1;PMS_P2;Temp;Humidity;BMP_temperature;BMP_pressure;BME280_temperature;BME280_humidity;BME280_pressure;Samples;Min_cycle;Max_cycle;Signal;HPM_P1;HPM_P2
2023/06/18 00:02:16;;;;;;;18.80;17.00;;;;;;;17.48;79.18;100163.59;79768;278;3011267;-73
2023/06/18 00:04:51;;;;;;;19.60;17.80;;;;;;;17.46;78.92;100162.88;78943;279;3027078;-73
2023/06/18 00:07:27;;;;;;;20.10;18.20;;;;;;;17.41;78.77;100166.04;79661;279;3011469;-72
2023/06/18 00:10:04;;;;;;;19.50;17.80;;;;;;;17.39;79.03;100164.41;79659;279;3011181;-73
2023/06/18 00:12:40;;;;;;;21.40;18.80;;;;;;;17.39;79.20;100165.00;78881;279;3029076;-73
2023/06/18 00:15:15;;;;;;;20.10;18.00;;;;;;;17.37;79.30;100172.52;78901;279;3028284;-73
2023/06/18 00:17:51;;;;;;;20.00;18.20;;;;;;;17.35;79.55;100167.71;78939;279;3028867;-73
2023/06/18 00:20:27;;;;;;;19.70;17.90;;;;;;;17.34;79.49;100163.41;79669;279;3011548;-73
2023/06/18 00:23:03;;;;;;;19.10;17.40;;;;;;;17.32;79.53;100160.35;79656;279;3013196;-73
2023/06/18 00:25:39;;;;;;;20.50;18.70;;;;;;;17.34;79.80;100162.89;79648;279;3011516;-72
2023/06/18 00:28:15;;;;;;;20.80;18.90;;;;;;;17.36;79.85;100164.33;79673;279;3011537;-72
2023/06/18 00:30:51;;;;;;;20.20;18.30;;;;;;;17.35;79.58;100166.64;79648;279;3011517;-72
2023/06/18 00:33:27;;;;;;;21.00;19.10;;;;;;;17.29;79.80;100165.13;79695;279;3012493;-72
2023/06/18 00:36:06;;;;;;;20.50;18.60;;;;;;;17.23;79.96;100164.12;79701;279;3011542;-72
2023/06/18 00:38:43;;;;;;;20.80;18.80;;;;;;;17.21;80.35;100161.63;78985;279;3027062;-72
2023/06/18 00:41:18;;;;;;;19.10;17.50;;;;;;;17.24;80.41;100163.36;78934;279;3027489;-72
2023/06/18 00:43:57;;;;;;;20.10;18.20;;;;;;;17.30;80.25;100168.60;79731;279;3011557;-70
2023/06/18 00:46:35;;;;;;;19.90;18.10;;;;;;;17.32;80.38;100173.38;78946;279;3030634;-71
2023/06/18 00:49:10;;;;;;;19.90;18.10;;;;;;;17.33;80.32;100170.54;78933;279;3027069;-73
2023/06/18 00:51:47;;;;;;;19.50;17.50;;;;;;;17.33;80.64;100169.98;79692;279;3011537;-73
2023/06/18 00:54:22;;;;;;;18.90;17.20;;;;;;;17.34;80.42;100169.23;78939;279;3028386;-71
2023/06/18 00:56:59;;;;;;;19.20;17.40;;;;;;;17.34;80.28;100172.36;79705;279;3011355;-72
2023/06/18 00:59:34;;;;;;;20.30;18.40;;;;;;;17.31;80.30;100173.14;78903;279;3027940;-72
2023/06/18 01:02:11;;;;;;;19.80;18.00;;;;;;;17.21;80.30;100177.30;79701;279;3011475;-72
2023/06/18 01:04:46;;;;;;;18.30;16.60;;;;;;;17.14;80.62;100174.06;78977;278;3027015;-72
2023/06/18 01:07:22;;;;;;;18.90;17.20;;;;;;;17.14;80.70;100169.20;79705;278;3011594;-72
2023/06/18 01:09:58;;;;;;;18.70;17.00;;;;;;;17.14;80.93;100170.25;78988;278;3028596;-72
2023/06/18 01:12:38;;;;;;;19.40;17.50;;;;;;;17.15;81.02;100166.81;78999;278;3027645;-72
2023/06/18 01:15:14;;;;;;;20.30;18.30;;;;;;;17.14;81.06;100171.80;79002;278;3028172;-72
2023/06/18 01:17:49;;;;;;;20.80;19.00;;;;;;;17.13;81.06;100170.63;79007;278;3027714;-72
2023/06/18 01:20:25;;;;;;;19.90;18.20;;;;;;;17.12;81.06;100165.61;78993;278;3027227;-72
2023/06/18 01:23:02;;;;;;;19.90;18.10;;;;;;;17.07;80.95;100163.64;79052;278;3028002;-72
2023/06/18 01:25:38;;;;;;;19.80;18.00;;;;;;;17.05;81.11;100166.96;78969;278;3028637;-72
2023/06/18 01:28:15;;;;;;;19.20;17.30;;;;;;;17.08;81.37;100168.35;79746;278;3011705;-72
2023/06/18 01:30:50;;;;;;;19.60;17.80;;;;;;;17.08;81.14;100165.36;78936;278;3027701;-72
2023/06/18 01:33:26;;;;;;;20.60;18.60;;;;;;;17.04;81.24;100165.46;79686;278;3013093;-72
2023/06/18 01:36:02;;;;;;;21.00;19.20;;;;;;;16.99;81.22;100162.09;79624;279;3011846;-72
2023/06/18 01:38:42;;;;;;;21.00;18.90;;;;;;;16.95;81.43;100164.30;79710;278;3012974;-71
2023/06/18 01:41:19;;;;;;;20.60;18.60;;;;;;;16.90;81.16;100169.02;78942;278;3027425;-72
2023/06/18 01:43:58;;;;;;;19.50;17.80;;;;;;;16.87;81.25;100170.85;78989;278;3027692;-73
2023/06/18 01:46:33;;;;;;;21.00;19.10;;;;;;;16.81;81.11;100169.88;78993;278;3026870;-72
2023/06/18 01:49:09;;;;;;;21.10;19.00;;;;;;;16.74;81.33;100173.10;78986;279;3028160;-72
2023/06/18 01:51:44;;;;;;;21.20;19.30;;;;;;;16.72;81.44;100175.15;78997;278;3030448;-70
2023/06/18 01:54:21;;;;;;;20.50;18.70;;;;;;;16.73;81.66;100174.07;79764;278;3011397;-72
2023/06/18 01:56:56;;;;;;;20.60;18.80;;;;;;;16.69;81.66;100174.31;78978;278;3027247;-72
2023/06/18 01:59:32;;;;;;;20.90;19.00;;;;;;;16.67;81.85;100171.61;79664;279;3011848;-72
2023/06/18 02:02:08;;;;;;;19.50;17.80;;;;;;;16.65;81.90;100170.85;79718;278;3012856;-72
2023/06/18 02:04:45;;;;;;;20.70;18.70;;;;;;;16.64;81.73;100177.79;79755;275;3011503;-72
2023/06/18 02:07:20;;;;;;;22.00;20.00;;;;;;;16.65;81.87;100177.75;78995;279;3027407;-72
2023/06/18 02:09:56;;;;;;;21.60;19.70;;;;;;;16.64;81.83;100173.75;79764;279;3011521;-72
2023/06/18 02:12:32;;;;;;;21.80;19.80;;;;;;;16.62;82.25;100175.27;79741;279;3011541;-73
2023/06/18 02:15:10;;;;;;;21.40;19.10;;;;;;;16.62;82.45;100179.54;78954;279;3026744;-72
2023/06/18 02:17:46;;;;;;;20.40;18.70;;;;;;;16.60;82.40;100182.98;78983;279;3027299;-72
2023/06/18 02:20:21;;;;;;;20.30;18.40;;;;;;;16.58;82.48;100183.80;79701;279;3011687;-73
2023/06/18 02:22:58;;;;;;;19.10;17.30;;;;;;;16.59;82.64;100180.95;79689;279;3011731;-72
2023/06/18 02:25:33;;;;;;;20.10;18.30;;;;;;;16.60;82.57;100183.66;78849;279;3029040;-72
2023/06/18 02:28:10;;;;;;;21.00;19.20;;;;;;;16.62;82.47;100181.08;79711;279;3012688;-73
2023/06/18 02:30:45;;;;;;;21.60;19.60;;;;;;;16.58;82.30;100181.00;78951;278;3028119;-73
2023/06/18 02:33:22;;;;;;;20.60;18.70;;;;;;;16.59;82.74;100186.61;79703;279;3011465;-73
2023/06/18 02:35:57;;;;;;;21.30;19.30;;;;;;;16.61;83.09;100189.61;78965;278;3027327;-73
2023/06/18 02:38:33;;;;;;;19.90;17.90;;;;;;;16.64;83.13;100189.77;79731;278;3011458;-73
2023/06/18 02:41:10;;;;;;;19.50;17.70;;;;;;;16.66;83.20;100195.09;79760;279;3011868;-72
2023/06/18 02:43:49;;;;;;;21.10;19.10;;;;;;;16.69;83.14;100198.94;79792;279;3011443;-72
2023/06/18 02:46:22;;;;;;;;;;;;;;;16.70;83.12;100198.92;79036;278;3027280;-72
2023/06/18 02:48:56;;;;;;;21.60;19.70;;;;;;;16.58;83.36;100200.59;80248;278;3013382;-72
2023/06/18 02:51:31;;;;;;;21.10;19.10;;;;;;;16.55;83.52;100194.95;78995;278;3027640;-73
2023/06/18 02:54:08;;;;;;;21.60;19.60;;;;;;;16.55;83.77;100198.11;79712;282;3011264;-72
2023/06/18 02:56:44;;;;;;;20.00;18.20;;;;;;;16.53;83.64;100195.11;79734;278;3011577;-73
2023/06/18 02:59:20;;;;;;;21.10;19.00;;;;;;;16.54;83.93;100198.55;79726;278;3011498;-73
2023/06/18 03:01:56;;;;;;;20.30;18.50;;;;;;;16.57;84.24;100198.35;79724;278;3011481;-71
2023/06/18 03:04:32;;;;;;;20.10;18.30;;;;;;;16.60;84.27;100200.26;79701;279;3011870;-72
2023/06/18 03:07:09;;;;;;;21.70;19.80;;;;;;;16.64;84.56;100199.97;79687;279;3011366;-72
2023/06/18 03:09:44;;;;;;;21.90;20.00;;;;;;;16.70;84.77;100199.09;78935;278;3028319;-72
2023/06/18 03:12:20;;;;;;;21.40;19.20;;;;;;;16.75;84.68;100199.65;79690;279;3011503;-72
2023/06/18 03:14:56;;;;;;;21.40;19.50;;;;;;;16.80;84.47;100200.41;79740;279;3011458;-72
2023/06/18 03:17:32;;;;;;;22.10;19.90;;;;;;;16.78;84.24;100202.29;79663;279;3011531;-73
2023/06/18 03:20:11;;;;;;;21.10;19.30;;;;;;;16.75;84.36;100201.41;78989;279;3027287;-73
2023/06/18 03:22:45;;;;;;;20.80;18.80;;;;;;;16.76;84.77;100200.98;78155;279;3027109;-72
2023/06/18 03:25:21;;;;;;;20.40;18.60;;;;;;;16.81;84.90;100203.68;79689;271;3013261;-73
2023/06/18 03:27:57;;;;;;;20.60;18.70;;;;;;;16.88;84.90;100204.23;79746;279;3011348;-73
2023/06/18 03:30:34;;;;;;;21.50;19.40;;;;;;;16.93;84.79;100206.19;79694;279;3011551;-70
2023/06/18 03:33:10;;;;;;;21.70;19.80;;;;;;;16.94;84.89;100211.59;79707;279;3011446;-72
2023/06/18 03:35:46;;;;;;;20.80;18.80;;;;;;;16.95;84.99;100210.63;78931;279;3026799;-72
2023/06/18 03:38:21;;;;;;;20.60;18.80;;;;;;;17.03;85.11;100214.17;78967;279;3028107;-73
2023/06/18 03:40:58;;;;;;;20.40;18.70;;;;;;;17.07;85.05;100215.34;79681;279;3011511;-72
2023/06/18 03:43:35;;;;;;;21.50;19.40;;;;;;;17.10;85.07;100218.80;79641;279;3011576;-72
2023/06/18 03:46:10;;;;;;;21.50;19.50;;;;;;;17.13;84.86;100219.48;78888;279;3027197;-72
2023/06/18 03:48:46;;;;;;;21.40;19.40;;;;;;;17.14;84.80;100219.98;79618;279;3011571;-72
2023/06/18 03:51:22;;;;;;;21.10;19.20;;;;;;;17.18;85.11;100229.86;79632;279;3012581;-72
2023/06/18 03:53:57;;;;;;;21.80;19.70;;;;;;;17.23;85.04;100231.45;78904;279;3027188;-72
2023/06/18 03:56:33;;;;;;;20.80;18.90;;;;;;;17.33;85.18;100238.94;79680;279;3011571;-73
2023/06/18 03:59:10;;;;;;;22.10;20.00;;;;;;;17.40;85.11;100238.64;79693;279;3011334;-73
2023/06/18 04:01:46;;;;;;;23.30;20.90;;;;;;;17.46;84.97;100241.52;79670;279;3011251;-72
2023/06/18 04:04:22;;;;;;;22.90;20.80;;;;;;;17.55;84.81;100239.69;79723;278;3012020;-72
2023/06/18 04:06:58;;;;;;;23.50;21.20;;;;;;;17.61;84.71;100239.45;79721;278;3011446;-72
2023/06/18 04:09:34;;;;;;;23.60;21.40;;;;;;;17.67;84.42;100236.78;79720;278;3011593;-72
2023/06/18 04:12:12;;;;;;;22.80;20.70;;;;;;;17.70;84.41;100238.48;79708;278;3013042;-73
2023/06/18 04:14:48;;;;;;;23.70;21.60;;;;;;;17.76;84.45;100238.80;79025;278;3027709;-73
2023/06/18 04:17:26;;;;;;;24.50;22.30;;;;;;;17.80;84.20;100235.15;79726;278;3011893;-73
2023/06/18 04:20:02;;;;;;;23.20;21.00;;;;;;;17.85;84.12;100239.23;78911;280;3028475;-72
2023/06/18 04:22:40;;;;;;;22.40;20.30;;;;;;;17.89;84.01;100235.63;78956;278;3028862;-73
2023/06/18 04:25:16;;;;;;;23.30;21.10;;;;;;;17.94;83.81;100233.52;78973;278;3027388;-71
2023/06/18 04:27:52;;;;;;;23.30;21.30;;;;;;;17.97;83.61;100232.68;79742;278;3011429;-72
2023/06/18 04:30:27;;;;;;;22.50;20.40;;;;;;;17.99;83.32;100234.90;78947;278;3027859;-72
2023/06/18 04:33:03;;;;;;;23.10;20.80;;;;;;;18.04;83.53;100238.38;79741;278;3011558;-72
2023/06/18 04:35:40;;;;;;;22.80;20.50;;;;;;;18.09;83.45;100240.36;79688;278;3013186;-72
2023/06/18 04:38:16;;;;;;;22.70;20.60;;;;;;;18.12;83.23;100246.70;79726;279;3011529;-72
2023/06/18 04:40:52;;;;;;;22.50;20.60;;;;;;;18.13;83.07;100249.60;79711;278;3011302;-73
2023/06/18 04:43:28;;;;;;;23.40;21.30;;;;;;;18.18;82.95;100253.67;79715;278;3011472;-72
2023/06/18 04:46:04;;;;;;;24.10;22.00;;;;;;;18.22;83.01;100255.86;79697;278;3011293;-73
2023/06/18 04:48:40;;;;;;;23.80;21.50;;;;;;;18.22;82.76;100255.64;79049;279;3028835;-72
2023/06/18 04:51:16;;;;;;;23.70;21.70;;;;;;;18.22;82.53;100254.27;79716;278;3011473;-71
2023/06/18 04:53:52;;;;;;;23.70;21.40;;;;;;;18.25;82.52;100256.17;79758;278;3011351;-72
2023/06/18 04:56:28;;;;;;;24.20;22.00;;;;;;;18.28;82.47;100253.81;79720;278;3011560;-72
2023/06/18 04:59:04;;;;;;;24.10;21.80;;;;;;;18.31;82.43;100252.66;79017;278;3028010;-71
2023/06/18 05:01:40;;;;;;;24.00;21.80;;;;;;;18.34;82.34;100254.25;79771;278;3011562;-72
2023/06/18 05:04:16;;;;;;;23.50;21.40;;;;;;;18.37;82.31;100260.72;79756;279;3011504;-72
2023/06/18 05:06:52;;;;;;;24.00;21.80;;;;;;;18.41;82.20;100260.12;79767;278;3011873;-72
2023/06/18 05:09:29;;;;;;;22.90;20.90;;;;;;;18.46;82.38;100262.77;79728;278;3012650;-73
2023/06/18 05:12:04;;;;;;;22.90;20.70;;;;;;;18.48;81.71;100264.91;78947;278;3027018;-73
2023/06/18 05:14:41;;;;;;;23.30;21.10;;;;;;;18.49;81.51;100264.30;79720;278;3013118;-72
2023/06/18 05:17:17;;;;;;;22.40;20.40;;;;;;;18.53;81.34;100262.25;79611;279;3011463;-73
2023/06/18 05:19:52;;;;;;;23.30;20.60;;;;;;;18.60;81.26;100267.05;78979;278;3027186;-72
2023/06/18 05:22:30;;;;;;;23.50;21.20;;;;;;;18.68;81.23;100267.38;78969;278;3027241;-73
2023/06/18 05:25:11;;;;;;;22.90;20.80;;;;;;;18.75;81.08;100265.38;78899;279;3028414;-73
2023/06/18 05:27:48;;;;;;;24.00;21.70;;;;;;;18.88;81.23;100260.28;78934;278;3028609;-71
2023/06/18 05:30:24;;;;;;;22.90;20.80;;;;;;;19.02;81.12;100262.75;78950;278;3027565;-72
2023/06/18 05:33:00;;;;;;;24.60;22.20;;;;;;;19.17;81.02;100265.98;78935;279;3026664;-73
2023/06/18 05:35:35;;;;;;;23.00;20.90;;;;;;;19.32;80.96;100272.29;78960;278;3028149;-73
2023/06/18 05:38:10;;;;;;;24.10;21.80;;;;;;;19.49;80.59;100274.23;79041;278;3028121;-74
2023/06/18 05:40:46;;;;;;;21.50;19.60;;;;;;;19.60;80.12;100273.35;78984;278;3027132;-73
2023/06/18 05:43:22;;;;;;;22.30;20.30;;;;;;;19.70;79.63;100275.98;78978;278;3028496;-72
2023/06/18 05:45:58;;;;;;;21.90;20.00;;;;;;;19.77;79.38;100276.64;78911;278;3027005;-72
2023/06/18 05:48:33;;;;;;;21.50;19.50;;;;;;;19.83;78.44;100276.83;78899;279;3026558;-72
2023/06/18 05:51:09;;;;;;;22.00;20.10;;;;;;;19.91;78.29;100275.95;79699;279;3011504;-73
2023/06/18 05:53:47;;;;;;;22.10;20.10;;;;;;;19.99;77.84;100278.61;79719;278;3011569;-72
2023/06/18 05:56:24;;;;;;;21.70;19.70;;;;;;;20.07;77.52;100283.84;78970;279;3027373;-70
2023/06/18 05:59:00;;;;;;;22.80;20.60;;;;;;;20.13;77.16;100289.39;78829;275;3029545;-73
2023/06/18 06:01:40;;;;;;;21.50;19.60;;;;;;;20.17;76.81;100286.23;78954;279;3027425;-71
2023/06/18 06:04:21;;;;;;;21.30;19.50;;;;;;;20.20;76.81;100291.30;78893;271;3028195;-71
2023/06/18 06:06:59;;;;;;;21.90;19.70;;;;;;;20.27;76.71;100290.96;78937;279;3028555;-73
2023/06/18 06:09:34;;;;;;;21.60;19.60;;;;;;;20.27;75.89;100291.97;78986;279;3028129;-72
2023/06/18 06:12:14;;;;;;;21.50;19.60;;;;;;;20.27;75.96;100288.10;78984;278;3026869;-72
2023/06/18 06:14:51;;;;;;;20.90;19.20;;;;;;;20.33;76.22;100286.94;78990;279;3029922;-72
2023/06/18 06:17:26;;;;;;;20.90;19.00;;;;;;;20.38;76.16;100288.45;78992;279;3028270;-72
2023/06/18 06:20:03;;;;;;;19.60;17.90;;;;;;;20.44;76.04;100298.96;79794;278;3011477;-72
2023/06/18 06:22:40;;;;;;;20.80;18.80;;;;;;;20.52;76.23;100305.23;78998;278;3027199;-72
2023/06/18 06:25:17;;;;;;;19.60;17.80;;;;;;;20.61;76.02;100308.41;79039;278;3028801;-72
2023/06/18 06:27:53;;;;;;;21.20;19.20;;;;;;;20.71;75.90;100307.86;79042;278;3028279;-72
2023/06/18 06:30:29;;;;;;;20.80;18.90;;;;;;;20.83;75.72;100312.12;79007;278;3027122;-72
2023/06/18 06:33:04;;;;;;;20.50;18.70;;;;;;;20.93;75.43;100312.55;78924;278;3030464;-72
2023/06/18 06:35:41;;;;;;;21.40;19.40;;;;;;;21.03;75.05;100310.70;79680;278;3012476;-72
2023/06/18 06:38:17;;;;;;;20.60;18.50;;;;;;;21.14;74.30;100313.33;79715;278;3011384;-73
2023/06/18 06:40:53;;;;;;;20.00;18.10;;;;;;;21.24;74.10;100312.98;79693;279;3011711;-72
2023/06/18 06:43:29;;;;;;;21.20;19.40;;;;;;;21.38;74.09;100314.89;79010;278;3026889;-72
2023/06/18 06:46:05;;;;;;;21.60;19.70;;;;;;;21.52;73.81;100307.67;79710;279;3011486;-72
2023/06/18 06:48:42;;;;;;;20.40;18.60;;;;;;;21.63;73.71;100312.40;79733;278;3011470;-73
2023/06/18 06:51:17;;;;;;;20.70;18.90;;;;;;;21.72;73.10;100309.14;78970;278;3027156;-72
2023/06/18 06:53:53;;;;;;;21.40;19.30;;;;;;;21.80;72.75;100312.74;79765;278;3012496;-72
2023/06/18 06:56:30;;;;;;;21.00;19.20;;;;;;;21.85;72.62;100312.25;79685;279;3012729;-71
2023/06/18 06:59:05;;;;;;;21.00;19.00;;;;;;;21.93;72.12;100316.02;78963;278;3027896;-71
2023/06/18 07:01:42;;;;;;;20.70;18.80;;;;;;;21.99;71.41;100314.63;79006;278;3026543;-71
2023/06/18 07:04:18;;;;;;;19.70;18.00;;;;;;;22.06;71.29;100315.77;79050;278;3028544;-72
2023/06/18 07:06:55;;;;;;;20.70;18.70;;;;;;;22.18;71.42;100317.95;79754;278;3012636;-71
2023/06/18 07:09:32;;;;;;;19.60;17.80;;;;;;;22.32;71.40;100317.60;79083;278;3027388;-72
2023/06/18 07:12:11;;;;;;;20.70;18.60;;;;;;;22.50;70.24;100322.61;79759;278;3011488;-71
2023/06/18 07:14:46;;;;;;;20.20;18.40;;;;;;;22.62;69.09;100324.55;79030;278;3027308;-72
2023/06/18 07:17:22;;;;;;;20.00;18.20;;;;;;;22.66;68.21;100321.20;79724;278;3011432;-71
2023/06/18 07:19:59;;;;;;;18.50;16.90;;;;;;;22.70;68.50;100316.94;79770;278;3011470;-71
2023/06/18 07:22:37;;;;;;;17.30;15.80;;;;;;;22.91;68.23;100314.13;79009;278;3027346;-71
2023/06/18 07:25:13;;;;;;;17.60;15.90;;;;;;;23.10;67.01;100314.58;78960;278;3027004;-72
2023/06/18 07:27:48;;;;;;;16.60;15.10;;;;;;;23.29;66.35;100318.00;78959;278;3027289;-79
2023/06/18 07:30:24;;;;;;;17.60;16.10;;;;;;;23.50;66.19;100317.30;78941;278;3026765;-71
2023/06/18 07:33:00;;;;;;;17.30;15.90;;;;;;;23.75;65.22;100318.35;79724;279;3011550;-70
2023/06/18 07:35:36;;;;;;;16.10;14.80;;;;;;;23.77;63.50;100321.76;79696;278;3011415;-72
2023/06/18 07:38:13;;;;;;;16.30;15.00;;;;;;;23.72;63.18;100323.40;79702;279;3011536;-72
2023/06/18 07:40:48;;;;;;;16.50;15.20;;;;;;;23.72;63.69;100322.08;78959;278;3030241;-77
2023/06/18 07:43:24;;;;;;;14.60;13.40;;;;;;;23.86;63.79;100322.89;78972;278;3026778;-72
2023/06/18 07:46:00;;;;;;;16.90;15.50;;;;;;;23.98;63.50;100323.81;79716;278;3012949;-72
2023/06/18 07:48:37;;;;;;;15.30;14.00;;;;;;;24.06;62.88;100321.52;79767;278;3011504;-71
2023/06/18 07:51:13;;;;;;;14.20;13.10;;;;;;;24.14;62.90;100323.41;78992;278;3027540;-74
2023/06/18 07:53:48;;;;;;;13.60;12.40;;;;;;;24.29;62.55;100319.60;79058;278;3028594;-76
2023/06/18 07:56:26;;;;;;;12.50;11.50;;;;;;;24.40;61.05;100318.27;78958;278;3027195;-76
2023/06/18 07:59:01;;;;;;;13.30;12.30;;;;;;;24.47;60.72;100318.44;78984;278;3027846;-76
2023/06/18 08:01:37;;;;;;;12.60;11.40;;;;;;;24.48;60.41;100319.73;78960;278;3026950;-76
2023/06/18 08:04:12;;;;;;;10.60;9.80;;;;;;;24.57;59.64;100325.31;78978;278;3027315;-76
2023/06/18 08:06:50;;;;;;;10.50;9.60;;;;;;;24.71;60.04;100326.75;79721;279;3011583;-76
2023/06/18 08:09:25;;;;;;;9.90;9.10;;;;;;;24.84;58.40;100326.83;78970;278;3027235;-76
2023/06/18 08:12:00;;;;;;;9.50;8.80;;;;;;;24.94;58.79;100333.58;78938;278;3027009;-76
2023/06/18 08:14:37;;;;;;;10.60;9.70;;;;;;;25.16;58.68;100341.86;79694;278;3012918;-76
2023/06/18 08:17:15;;;;;;;10.90;9.90;;;;;;;25.43;57.60;100344.48;78930;278;3027314;-77
2023/06/18 08:19:51;;;;;;;10.10;9.40;;;;;;;25.87;57.26;100344.86;78987;279;3026967;-74
2023/06/18 08:22:27;;;;;;;9.60;8.70;;;;;;;26.32;56.22;100344.63;78960;278;3027439;-74
2023/06/18 08:25:03;;;;;;;9.50;8.80;;;;;;;26.56;53.95;100345.65;78976;279;3028580;-75
2023/06/18 08:27:39;;;;;;;11.40;10.40;;;;;;;26.57;53.04;100345.05;78942;278;3028021;-76
2023/06/18 08:30:15;;;;;;;11.70;10.60;;;;;;;26.47;52.58;100340.90;78929;279;3028902;-76
2023/06/18 08:32:50;;;;;;;12.80;11.60;;;;;;;26.44;53.09;100339.55;79030;278;3027926;-76
2023/06/18 08:35:26;;;;;;;12.30;11.20;;;;;;;26.61;53.47;100340.54;79001;278;3027498;-76
2023/06/18 08:38:01;;;;;;;12.30;11.30;;;;;;;26.65;52.06;100341.29;79044;278;3027596;-77
2023/06/18 08:40:50;;;;;;;10.90;10.00;;;;;;;26.57;51.47;100338.61;79004;278;3028189;-77
2023/06/18 08:43:32;;;;;;;11.70;10.60;;;;;;;26.48;51.55;100341.31;79005;279;3027961;-76
2023/06/18 08:46:12;;;;;;;11.50;10.40;;;;;;;26.46;51.19;100338.30;79016;278;3027753;-75
2023/06/18 08:48:51;;;;;;;10.90;10.00;;;;;;;26.46;50.86;100335.66;78896;278;3027240;-76
2023/06/18 08:51:26;;;;;;;10.60;9.80;;;;;;;26.40;50.86;100327.86;78963;278;3027080;-75
2023/06/18 08:54:09;;;;;;;10.40;9.40;;;;;;;26.31;51.05;100327.17;79741;278;3011474;-74
2023/06/18 08:56:47;;;;;;;9.50;8.70;;;;;;;26.38;51.92;100322.67;78983;278;3028682;-75
2023/06/18 08:59:23;;;;;;;8.90;8.10;;;;;;;26.48;51.88;100326.50;78979;278;3027811;-77
2023/06/18 09:01:58;;;;;;;10.40;7.60;;;;;;;26.55;51.33;100325.06;78905;278;3027720;-77
2023/06/18 09:04:34;;;;;;;7.70;7.00;;;;;;;26.48;49.69;100324.85;78993;278;3026610;-76
2023/06/18 09:07:12;;;;;;;7.10;6.20;;;;;;;26.26;49.85;100329.70;79754;278;3011698;-79
2023/06/18 09:09:51;;;;;;;8.70;7.00;;;;;;;26.08;50.13;100335.11;78975;278;3026674;-75
2023/06/18 09:12:27;;;;;;;8.20;7.60;;;;;;;25.87;50.63;100330.73;78989;278;3026758;-75
2023/06/18 09:15:03;;;;;;;8.20;7.60;;;;;;;25.72;50.48;100326.39;78973;278;3027603;-77
2023/06/18 09:17:40;;;;;;;10.50;9.50;;;;;;;25.55;50.97;100321.51;78968;278;3028086;-77
2023/06/18 09:20:16;;;;;;;11.40;10.00;;;;;;;25.34;51.09;100323.21;78891;279;3026769;-71
2023/06/18 09:22:52;;;;;;;13.20;10.90;;;;;;;25.13;51.21;100318.00;78964;271;3027434;-72
2023/06/18 09:25:27;;;;;;;12.80;11.00;;;;;;;24.97;51.91;100315.13;79024;278;3027502;-72
2023/06/18 09:28:04;;;;;;;9.90;8.90;;;;;;;24.75;52.25;100318.67;79773;278;3012432;-72
2023/06/18 09:30:40;;;;;;;8.70;7.80;;;;;;;24.58;52.39;100328.91;78996;278;3027876;-73
2023/06/18 09:33:16;;;;;;;9.80;8.60;;;;;;;24.39;53.23;100326.83;79035;278;3028375;-73
2023/06/18 09:35:52;;;;;;;9.70;8.70;;;;;;;24.28;53.25;100324.36;78981;278;3026977;-73
2023/06/18 09:38:34;;;;;;;9.70;8.80;;;;;;;24.14;52.84;100320.04;79018;278;3027941;-73
2023/06/18 09:41:14;;;;;;;9.40;8.50;;;;;;;23.98;54.36;100316.89;78929;279;3030225;-73
2023/06/18 09:43:50;;;;;;;10.10;9.10;;;;;;;23.86;54.97;100322.46;78958;278;3027420;-72
2023/06/18 09:46:26;;;;;;;10.10;9.20;;;;;;;23.79;56.64;100325.86;78944;278;3027135;-72
2023/06/18 09:49:01;;;;;;;9.60;8.70;;;;;;;23.71;57.99;100324.46;78975;278;3026913;-72
2023/06/18 09:51:42;;;;;;;9.40;8.50;;;;;;;23.64;58.68;100325.23;79660;279;3011222;-73
2023/06/18 09:54:17;;;;;;;7.80;7.10;;;;;;;23.57;58.08;100322.02;79004;279;3027755;-73
2023/06/18 09:57:02;;;;;;;9.00;8.10;;;;;;;23.49;58.67;100323.45;78932;279;3027158;-72
2023/06/18 09:59:37;;;;;;;8.40;7.70;;;;;;;23.39;58.80;100329.48;78996;279;3027125;-72
2023/06/18 10:02:14;;;;;;;8.20;7.60;;;;;;;23.32;58.84;100330.33;79736;279;3011541;-72
2023/06/18 10:04:49;;;;;;;8.50;7.50;;;;;;;23.28;59.06;100332.73;79033;279;3028455;-72
2023/06/18 10:07:25;;;;;;;10.20;9.30;;;;;;;23.23;59.40;100335.82;78929;279;3026696;-72
2023/06/18 10:10:02;;;;;;;9.60;8.60;;;;;;;23.12;59.27;100337.52;79045;278;3027268;-73
2023/06/18 10:12:49;;;;;;;9.10;8.20;;;;;;;23.01;59.18;100334.66;78994;279;3026722;-73
2023/06/18 10:15:25;;;;;;;8.50;7.80;;;;;;;22.89;59.20;100336.57;78943;278;3028473;-72
2023/06/18 10:18:00;;;;;;;10.50;9.60;;;;;;;22.78;59.52;100333.60;79035;279;3028345;-73
2023/06/18 10:20:35;;;;;;;9.70;8.90;;;;;;;22.67;59.62;100329.48;78948;278;3027973;-73
2023/06/18 10:23:11;;;;;;;8.80;8.10;;;;;;;22.61;60.13;100323.60;79727;279;3011458;-73
2023/06/18 10:25:47;;;;;;;8.60;7.80;;;;;;;22.57;60.79;100323.45;79709;279;3011254;-75
2023/06/18 10:28:27;;;;;;;9.30;8.30;;;;;;;22.54;61.49;100319.10;79734;278;3011197;-77
2023/06/18 10:31:02;;;;;;;8.70;7.80;;;;;;;22.48;62.19;100310.88;78908;279;3026614;-79
2023/06/18 10:33:37;;;;;;;9.00;8.30;;;;;;;22.45;63.05;100313.84;78990;279;3027667;-71
2023/06/18 10:36:13;;;;;;;9.20;8.40;;;;;;;22.41;63.06;100315.20;78952;279;3027451;-71
2023/06/18 10:38:51;;;;;;;9.10;8.40;;;;;;;22.36;63.73;100315.28;79743;279;3011803;-71
2023/06/18 10:41:27;;;;;;;9.20;8.40;;;;;;;22.31;64.47;100320.42;78978;279;3028380;-71
2023/06/18 10:44:02;;;;;;;8.10;7.50;;;;;;;22.25;64.72;100321.13;78957;279;3028540;-71
2023/06/18 10:46:38;;;;;;;8.00;7.40;;;;;;;22.19;65.17;100324.32;78959;279;3030528;-71
2023/06/18 10:49:20;;;;;;;8.80;7.90;;;;;;;22.13;65.37;100327.83;78934;279;3027498;-70
2023/06/18 10:52:26;;;;;;;8.60;7.80;;;;;;;22.06;65.54;100328.06;79015;278;3027548;-70
2023/06/18 10:55:09;;;;;;;8.90;8.10;;;;;;;21.99;65.78;100333.83;79056;279;3028395;-79
2023/06/18 10:57:48;;;;;;;8.70;8.00;;;;;;;21.95;65.65;100339.90;78991;279;3027528;-75
2023/06/18 11:00:32;;;;;;;8.30;7.60;;;;;;;21.90;65.62;100339.95;78962;279;3027762;-76
2023/06/18 11:03:12;;;;;;;9.20;8.30;;;;;;;21.84;65.47;100346.11;79055;279;3026992;-77
2023/06/18 11:05:53;;;;;;;8.30;7.60;;;;;;;21.75;65.05;100345.49;79006;279;3027078;-79
2023/06/18 11:08:35;;;;;;;8.60;7.70;;;;;;;21.70;65.32;100344.17;79033;278;3027490;-80
2023/06/18 11:11:15;;;;;;;8.00;7.30;;;;;;;21.62;65.53;100342.48;78952;280;3027539;-80
2023/06/18 11:13:55;;;;;;;8.50;7.70;;;;;;;21.55;65.78;100342.36;79066;278;3027089;-79
2023/06/18 11:16:31;;;;;;;9.30;8.50;;;;;;;21.53;66.03;100341.65;78902;279;3028266;-77
2023/06/18 11:19:06;;;;;;;9.40;8.60;;;;;;;21.51;66.16;100342.01;78959;278;3027682;-78
2023/06/18 11:21:45;;;;;;;9.80;9.00;;;;;;;21.48;66.40;100348.81;78037;279;3028432;-78
2023/06/18 11:24:21;;;;;;;10.00;9.00;;;;;;;21.43;66.41;100354.75;78904;278;3028635;-73
2023/06/18 11:26:56;;;;;;;10.00;9.00;;;;;;;21.38;66.38;100356.41;78940;278;3028230;-73
2023/06/18 11:29:35;;;;;;;9.40;8.50;;;;;;;21.36;66.63;100353.17;78985;271;3027404;-72
2023/06/18 11:32:14;;;;;;;10.20;9.30;;;;;;;21.35;67.09;100355.91;78954;278;3028331;-73
2023/06/18 11:34:49;;;;;;;10.60;9.80;;;;;;;21.35;67.13;100359.30;79017;278;3027388;-73
2023/06/18 11:37:27;;;;;;;11.00;10.00;;;;;;;21.34;67.79;100353.89;79723;278;3011284;-73
2023/06/18 11:40:03;;;;;;;11.70;10.70;;;;;;;21.32;68.54;100351.77;79015;278;3026898;-73
2023/06/18 11:42:49;;;;;;;11.70;10.70;;;;;;;21.28;68.79;100355.25;78969;279;3027153;-74
2023/06/18 11:45:24;;;;;;;11.50;10.50;;;;;;;21.28;69.00;100354.36;78990;279;3028355;-73
2023/06/18 11:48:00;;;;;;;12.30;11.00;;;;;;;21.29;69.29;100358.20;78989;279;3028258;-73